sensor_id;sensor_type;location;lat;lon;timestamp;P1;durP1;ratioP1;P2;durP2;ratioP2
27408;SDS011;20413;50.782;7.152;2023-04-01T00:00:09;0.60;;;0.20;;
27408;SDS011;20413;50.782;7.152;2023-04-01T00:02:35;3.50;;;0.20;;
27408;SDS011;20413;50.782;7.152;2023-04-01T00:05:00;1.15;;;0.30;;
27408;SDS011;20413;50.782;7.152;2023-04-01T00:07:26;2.38;;;0.40;;
27408;SDS011;20413;50.782;7.152;2023-04-01T00:09:52;0.95;;;0.20;;
27408;SDS011;20413;50.782;7.152;2023-04-01T00:12:17;1.50;;;0.25;;
27408;SDS011;20413;50.782;7.152;2023-04-01T00:14:43;2.30;;;0.30;;
27408;SDS011;20413;50.782;7.152;2023-04-01T00:17:09;1.23;;;0.22;;
27408;SDS011;20413;50.782;7.152;2023-04-01T00:19:35;2.50;;;0.40;;
27408;SDS011;20413;50.782;7.152;2023-04-01T00:22:02;2.05;;;0.30;;
27408;SDS011;20413;50.782;7.152;2023-04-01T00:24:27;0.43;;;0.43;;
27408;SDS011;20413;50.782;7.152;2023-04-01T00:26:53;1.02;;;0.40;;
27408;SDS011;20413;50.782;7.152;2023-04-01T00:29:19;2.50;;;0.30;;
27408;SDS011;20413;50.782;7.152;2023-04-01T00:31:45;0.40;;;0.20;;
27408;SDS011;20413;50.782;7.152;2023-04-01T00:34:12;0.73;;;0.20;;
27408;SDS011;20413;50.782;7.152;2023-04-01T00:36:37;1.50;;;0.30;;
27408;SDS011;20413;50.782;7.152;2023-04-01T00:39:03;1.10;;;0.30;;
27408;SDS011;20413;50.782;7.152;2023-04-01T00:41:29;0.55;;;0.20;;
27408;SDS011;20413;50.782;7.152;2023-04-01T00:44:11;1.13;;;0.50;;
27408;SDS011;20413;50.782;7.152;2023-04-01T00:46:43;1.60;;;0.30;;
27408;SDS011;20413;50.782;7.152;2023-04-01T00:49:08;1.02;;;0.20;;
27408;SDS011;20413;50.782;7.152;2023-04-01T00:51:34;1.48;;;0.20;;
27408;SDS011;20413;50.782;7.152;2023-04-01T00:54:03;1.67;;;0.20;;
27408;SDS011;20413;50.782;7.152;2023-04-01T00:56:32;0.80;;;0.30;;
27408;SDS011;20413;50.782;7.152;2023-04-01T00:59:02;1.77;;;0.20;;
27408;SDS011;20413;50.782;7.152;2023-04-01T01:01:33;0.45;;;0.25;;
27408;SDS011;20413;50.782;7.152;2023-04-01T01:04:00;0.80;;;0.28;;
27408;SDS011;20413;50.782;7.152;2023-04-01T01:06:37;1.05;;;0.20;;
27408;SDS011;20413;50.782;7.152;2023-04-01T01:12:31;0.47;;;0.13;;
27408;SDS011;20413;50.782;7.152;2023-04-01T01:15:39;1.98;;;0.20;;
27408;SDS011;20413;50.782;7.152;2023-04-01T01:18:14;1.15;;;0.30;;
27408;SDS011;20413;50.782;7.152;2023-04-01T01:23:40;1.38;;;0.20;;
27408;SDS011;20413;50.782;7.152;2023-04-01T01:34:34;0.57;;;0.10;;
27408;SDS011;20413;50.782;7.152;2023-04-01T01:37:12;2.10;;;0.20;;
27408;SDS011;20413;50.782;7.152;2023-04-01T01:39:41;0.30;;;0.30;;
27408;SDS011;20413;50.782;7.152;2023-04-01T01:42:09;0.43;;;0.20;;
27408;SDS011;20413;50.782;7.152;2023-04-01T01:44:39;0.95;;;0.10;;
27408;SDS011;20413;50.782;7.152;2023-04-01T01:47:07;0.20;;;0.20;;
27408;SDS011;20413;50.782;7.152;2023-04-01T01:49:33;2.00;;;0.50;;
27408;SDS011;20413;50.782;7.152;2023-04-01T01:52:01;0.55;;;0.10;;
27408;SDS011;20413;50.782;7.152;2023-04-01T01:54:26;1.02;;;0.50;;
27408;SDS011;20413;50.782;7.152;2023-04-01T01:56:55;1.00;;;0.30;;
27408;SDS011;20413;50.782;7.152;2023-04-01T01:59:31;1.08;;;0.17;;
27408;SDS011;20413;50.782;7.152;2023-04-01T02:01:59;1.08;;;0.20;;
27408;SDS011;20413;50.782;7.152;2023-04-01T02:04:32;1.38;;;0.28;;
27408;SDS011;20413;50.782;7.152;2023-04-01T02:07:04;1.02;;;0.30;;
27408;SDS011;20413;50.782;7.152;2023-04-01T02:09:37;0.50;;;0.10;;
27408;SDS011;20413;50.782;7.152;2023-04-01T02:12:04;0.30;;;0.10;;
27408;SDS011;20413;50.782;7.152;2023-04-01T02:20:13;0.70;;;0.20;;
27408;SDS011;20413;50.782;7.152;2023-04-01T02:22:21;0.85;;;0.10;;
27408;SDS011;20413;50.782;7.152;2023-04-01T02:24:50;0.65;;;0.10;;
27408;SDS011;20413;50.782;7.152;2023-04-01T02:27:18;1.75;;;0.10;;
27408;SDS011;20413;50.782;7.152;2023-04-01T02:29:45;1.33;;;0.13;;
27408;SDS011;20413;50.782;7.152;2023-04-01T02:32:11;0.10;;;0.10;;
27408;SDS011;20413;50.782;7.152;2023-04-01T02:34:38;0.77;;;0.20;;
27408;SDS011;20413;50.782;7.152;2023-04-01T02:37:05;1.23;;;0.22;;
27408;SDS011;20413;50.782;7.152;2023-04-01T02:39:31;0.57;;;0.10;;
27408;SDS011;20413;50.782;7.152;2023-04-01T02:41:56;0.95;;;0.20;;
27408;SDS011;20413;50.782;7.152;2023-04-01T02:44:22;0.43;;;0.10;;
27408;SDS011;20413;50.782;7.152;2023-04-01T02:46:47;0.70;;;0.15;;
27408;SDS011;20413;50.782;7.152;2023-04-01T02:49:13;0.88;;;0.20;;
27408;SDS011;20413;50.782;7.152;2023-04-01T02:51:38;0.32;;;0.13;;
27408;SDS011;20413;50.782;7.152;2023-04-01T02:54:04;0.70;;;0.17;;
27408;SDS011;20413;50.782;7.152;2023-04-01T02:56:30;0.40;;;0.10;;
27408;SDS011;20413;50.782;7.152;2023-04-01T02:58:55;2.08;;;0.20;;
27408;SDS011;20413;50.782;7.152;2023-04-01T03:01:21;1.30;;;0.20;;
27408;SDS011;20413;50.782;7.152;2023-04-01T03:03:47;1.90;;;0.25;;
27408;SDS011;20413;50.782;7.152;2023-04-01T03:06:14;1.23;;;0.30;;
27408;SDS011;20413;50.782;7.152;2023-04-01T03:08:40;0.30;;;0.20;;
27408;SDS011;20413;50.782;7.152;2023-04-01T03:11:07;3.03;;;0.32;;
27408;SDS011;20413;50.782;7.152;2023-04-01T03:13:32;2.60;;;0.38;;
27408;SDS011;20413;50.782;7.152;2023-04-01T03:15:58;1.75;;;0.20;;
27408;SDS011;20413;50.782;7.152;2023-04-01T03:18:24;2.22;;;0.75;;
27408;SDS011;20413;50.782;7.152;2023-04-01T03:20:49;0.45;;;0.10;;
27408;SDS011;20413;50.782;7.152;2023-04-01T03:23:15;2.78;;;0.50;;
27408;SDS011;20413;50.782;7.152;2023-04-01T03:25:42;2.47;;;0.20;;
27408;SDS011;20413;50.782;7.152;2023-04-01T03:28:08;4.65;;;0.93;;
27408;SDS011;20413;50.782;7.152;2023-04-01T03:30:34;0.50;;;0.13;;
27408;SDS011;20413;50.782;7.152;2023-04-01T03:32:59;0.98;;;0.15;;
27408;SDS011;20413;50.782;7.152;2023-04-01T03:35:25;1.90;;;0.32;;
27408;SDS011;20413;50.782;7.152;2023-04-01T03:37:52;0.30;;;0.20;;
27408;SDS011;20413;50.782;7.152;2023-04-01T03:40:18;2.30;;;0.43;;
27408;SDS011;20413;50.782;7.152;2023-04-01T03:42:45;2.40;;;0.10;;
27408;SDS011;20413;50.782;7.152;2023-04-01T03:45:11;1.20;;;0.28;;
27408;SDS011;20413;50.782;7.152;2023-04-01T03:47:39;1.38;;;0.20;;
27408;SDS011;20413;50.782;7.152;2023-04-01T03:50:05;2.20;;;0.30;;
27408;SDS011;20413;50.782;7.152;2023-04-01T03:52:32;0.75;;;0.30;;
27408;SDS011;20413;50.782;7.152;2023-04-01T03:54:58;2.55;;;0.20;;
27408;SDS011;20413;50.782;7.152;2023-04-01T03:57:23;0.35;;;0.10;;
27408;SDS011;20413;50.782;7.152;2023-04-01T03:59:49;0.68;;;0.25;;
27408;SDS011;20413;50.782;7.152;2023-04-01T04:02:15;1.63;;;0.20;;
27408;SDS011;20413;50.782;7.152;2023-04-01T04:04:41;0.90;;;0.25;;
27408;SDS011;20413;50.782;7.152;2023-04-01T04:07:07;1.10;;;0.22;;
27408;SDS011;20413;50.782;7.152;2023-04-01T04:09:33;2.55;;;0.20;;
27408;SDS011;20413;50.782;7.152;2023-04-01T04:11:59;0.43;;;0.15;;
27408;SDS011;20413;50.782;7.152;2023-04-01T04:14:25;2.00;;;0.30;;
27408;SDS011;20413;50.782;7.152;2023-04-01T04:16:51;0.30;;;0.10;;
27408;SDS011;20413;50.782;7.152;2023-04-01T04:19:16;0.68;;;0.20;;
27408;SDS011;20413;50.782;7.152;2023-04-01T04:21:42;0.25;;;0.05;;
27408;SDS011;20413;50.782;7.152;2023-04-01T04:24:07;0.10;;;0.10;;
27408;SDS011;20413;50.782;7.152;2023-04-01T04:26:33;0.55;;;0.10;;
27408;SDS011;20413;50.782;7.152;2023-04-01T04:28:59;0.25;;;0.10;;
27408;SDS011;20413;50.782;7.152;2023-04-01T04:31:25;0.95;;;0.20;;
27408;SDS011;20413;50.782;7.152;2023-04-01T04:33:51;0.10;;;0.10;;
27408;SDS011;20413;50.782;7.152;2023-04-01T04:36:18;0.15;;;0.10;;
27408;SDS011;20413;50.782;7.152;2023-04-01T04:38:44;0.32;;;0.10;;
27408;SDS011;20413;50.782;7.152;2023-04-01T04:41:11;0.90;;;0.20;;
27408;SDS011;20413;50.782;7.152;2023-04-01T04:43:38;0.10;;;0.10;;
27408;SDS011;20413;50.782;7.152;2023-04-01T04:46:07;0.70;;;0.10;;
27408;SDS011;20413;50.782;7.152;2023-04-01T04:48:34;0.20;;;0.17;;
27408;SDS011;20413;50.782;7.152;2023-04-01T04:51:00;0.03;;;0.03;;
27408;SDS011;20413;50.782;7.152;2023-04-01T04:53:26;0.50;;;0.20;;
27408;SDS011;20413;50.782;7.152;2023-04-01T04:55:52;0.17;;;0.10;;
27408;SDS011;20413;50.782;7.152;2023-04-01T04:58:18;0.00;;;0.00;;
27408;SDS011;20413;50.782;7.152;2023-04-01T05:00:44;0.20;;;0.10;;
27408;SDS011;20413;50.782;7.152;2023-04-01T05:03:10;0.63;;;0.10;;
27408;SDS011;20413;50.782;7.152;2023-04-01T05:05:37;0.98;;;0.10;;
27408;SDS011;20413;50.782;7.152;2023-04-01T05:08:03;2.63;;;0.20;;
27408;SDS011;20413;50.782;7.152;2023-04-01T05:10:29;0.38;;;0.10;;
27408;SDS011;20413;50.782;7.152;2023-04-01T05:12:56;1.30;;;0.17;;
27408;SDS011;20413;50.782;7.152;2023-04-01T05:15:22;0.20;;;0.10;;
27408;SDS011;20413;50.782;7.152;2023-04-01T05:17:51;0.10;;;0.10;;
27408;SDS011;20413;50.782;7.152;2023-04-01T05:20:16;1.65;;;0.20;;
27408;SDS011;20413;50.782;7.152;2023-04-01T05:22:42;2.38;;;0.10;;
27408;SDS011;20413;50.782;7.152;2023-04-01T05:25:08;1.65;;;0.30;;
27408;SDS011;20413;50.782;7.152;2023-04-01T05:27:34;2.28;;;0.10;;
27408;SDS011;20413;50.782;7.152;2023-04-01T05:30:00;2.92;;;0.20;;
27408;SDS011;20413;50.782;7.152;2023-04-01T05:32:25;0.65;;;0.20;;
27408;SDS011;20413;50.782;7.152;2023-04-01T05:34:51;0.13;;;0.10;;
27408;SDS011;20413;50.782;7.152;2023-04-01T05:37:17;0.38;;;0.20;;
27408;SDS011;20413;50.782;7.152;2023-04-01T05:39:43;1.42;;;0.40;;
27408;SDS011;20413;50.782;7.152;2023-04-01T05:42:09;0.70;;;0.20;;
27408;SDS011;20413;50.782;7.152;2023-04-01T05:44:35;0.95;;;0.10;;
27408;SDS011;20413;50.782;7.152;2023-04-01T05:47:01;0.32;;;0.17;;
27408;SDS011;20413;50.782;7.152;2023-04-01T05:49:27;2.70;;;0.85;;
27408;SDS011;20413;50.782;7.152;2023-04-01T05:51:52;0.32;;;0.20;;
27408;SDS011;20413;50.782;7.152;2023-04-01T05:54:18;3.40;;;0.25;;
27408;SDS011;20413;50.782;7.152;2023-04-01T05:56:44;3.72;;;0.20;;
27408;SDS011;20413;50.782;7.152;2023-04-01T05:59:10;0.75;;;0.32;;
27408;SDS011;20413;50.782;7.152;2023-04-01T06:01:36;1.95;;;0.30;;
27408;SDS011;20413;50.782;7.152;2023-04-01T06:04:02;1.20;;;0.40;;
27408;SDS011;20413;50.782;7.152;2023-04-01T06:06:29;2.10;;;0.22;;
27408;SDS011;20413;50.782;7.152;2023-04-01T06:08:57;1.50;;;0.30;;
27408;SDS011;20413;50.782;7.152;2023-04-01T06:17:34;1.75;;;0.40;;
27408;SDS011;20413;50.782;7.152;2023-04-01T06:20:18;4.10;;;0.30;;
27408;SDS011;20413;50.782;7.152;2023-04-01T06:37:54;0.57;;;0.30;;
27408;SDS011;20413;50.782;7.152;2023-04-01T06:43:34;2.28;;;0.20;;
27408;SDS011;20413;50.782;7.152;2023-04-01T06:54:34;0.50;;;0.10;;
27408;SDS011;20413;50.782;7.152;2023-04-01T06:57:05;0.10;;;0.10;;
27408;SDS011;20413;50.782;7.152;2023-04-01T06:59:44;0.22;;;0.20;;
27408;SDS011;20413;50.782;7.152;2023-04-01T07:04:48;0.90;;;0.20;;
27408;SDS011;20413;50.782;7.152;2023-04-01T07:07:24;0.35;;;0.20;;
27408;SDS011;20413;50.782;7.152;2023-04-01T07:10:09;0.30;;;0.30;;
27408;SDS011;20413;50.782;7.152;2023-04-01T07:12:48;0.30;;;0.30;;
27408;SDS011;20413;50.782;7.152;2023-04-01T07:15:19;0.40;;;0.20;;
27408;SDS011;20413;50.782;7.152;2023-04-01T07:18:05;4.20;;;0.82;;
27408;SDS011;20413;50.782;7.152;2023-04-01T07:20:37;0.35;;;0.20;;
27408;SDS011;20413;50.782;7.152;2023-04-01T07:23:05;0.50;;;0.30;;
27408;SDS011;20413;50.782;7.152;2023-04-01T07:25:43;0.55;;;0.28;;
27408;SDS011;20413;50.782;7.152;2023-04-01T07:28:12;0.55;;;0.40;;
27408;SDS011;20413;50.782;7.152;2023-04-01T07:42:16;0.43;;;0.30;;
27408;SDS011;20413;50.782;7.152;2023-04-01T07:45:09;0.30;;;0.30;;
27408;SDS011;20413;50.782;7.152;2023-04-01T07:50:27;0.90;;;0.40;;
27408;SDS011;20413;50.782;7.152;2023-04-01T08:01:40;1.10;;;1.00;;
27408;SDS011;20413;50.782;7.152;2023-04-01T08:04:04;0.85;;;0.40;;
27408;SDS011;20413;50.782;7.152;2023-04-01T08:18:03;2.28;;;0.70;;
27408;SDS011;20413;50.782;7.152;2023-04-01T08:24:07;1.95;;;0.68;;
27408;SDS011;20413;50.782;7.152;2023-04-01T08:26:55;4.40;;;0.85;;
27408;SDS011;20413;50.782;7.152;2023-04-01T08:29:26;1.15;;;0.80;;
27408;SDS011;20413;50.782;7.152;2023-04-01T08:32:08;1.20;;;0.45;;
27408;SDS011;20413;50.782;7.152;2023-04-01T08:35:19;2.35;;;0.80;;
27408;SDS011;20413;50.782;7.152;2023-04-01T08:37:42;3.72;;;0.68;;
27408;SDS011;20413;50.782;7.152;2023-04-01T08:58:00;2.58;;;0.50;;
27408;SDS011;20413;50.782;7.152;2023-04-01T09:01:15;1.00;;;0.38;;
27408;SDS011;20413;50.782;7.152;2023-04-01T09:06:27;2.00;;;0.32;;
27408;SDS011;20413;50.782;7.152;2023-04-01T09:09:13;0.28;;;0.20;;
27408;SDS011;20413;50.782;7.152;2023-04-01T09:14:41;2.33;;;0.35;;
27408;SDS011;20413;50.782;7.152;2023-04-01T09:28:34;2.38;;;0.30;;
27408;SDS011;20413;50.782;7.152;2023-04-01T09:31:09;2.58;;;0.50;;
27408;SDS011;20413;50.782;7.152;2023-04-01T09:39:36;0.63;;;0.30;;
27408;SDS011;20413;50.782;7.152;2023-04-01T09:44:57;4.50;;;0.70;;
27408;SDS011;20413;50.782;7.152;2023-04-01T09:56:13;1.85;;;0.43;;
27408;SDS011;20413;50.782;7.152;2023-04-01T10:01:29;2.30;;;0.35;;
27408;SDS011;20413;50.782;7.152;2023-04-01T10:07:14;0.32;;;0.20;;
27408;SDS011;20413;50.782;7.152;2023-04-01T10:18:43;0.82;;;0.40;;
27408;SDS011;20413;50.782;7.152;2023-04-01T10:34:30;1.10;;;0.45;;
27408;SDS011;20413;50.782;7.152;2023-04-01T10:40:12;1.35;;;0.22;;
27408;SDS011;20413;50.782;7.152;2023-04-01T10:51:01;1.40;;;0.25;;
27408;SDS011;20413;50.782;7.152;2023-04-01T10:53:37;0.25;;;0.25;;
27408;SDS011;20413;50.782;7.152;2023-04-01T11:04:57;0.47;;;0.20;;
27408;SDS011;20413;50.782;7.152;2023-04-01T11:20:13;0.20;;;0.20;;
27408;SDS011;20413;50.782;7.152;2023-04-01T11:33:54;0.55;;;0.30;;
27408;SDS011;20413;50.782;7.152;2023-04-01T11:39:19;0.20;;;0.17;;
27408;SDS011;20413;50.782;7.152;2023-04-01T11:42:14;1.58;;;0.30;;
27408;SDS011;20413;50.782;7.152;2023-04-01T11:45:12;0.20;;;0.20;;
27408;SDS011;20413;50.782;7.152;2023-04-01T11:51:13;0.15;;;0.10;;
27408;SDS011;20413;50.782;7.152;2023-04-01T11:54:18;0.17;;;0.15;;
27408;SDS011;20413;50.782;7.152;2023-04-01T11:57:09;1.75;;;0.40;;
27408;SDS011;20413;50.782;7.152;2023-04-01T12:11:39;1.48;;;0.32;;
27408;SDS011;20413;50.782;7.152;2023-04-01T12:17:03;0.30;;;0.30;;
27408;SDS011;20413;50.782;7.152;2023-04-01T12:22:43;0.73;;;0.30;;
27408;SDS011;20413;50.782;7.152;2023-04-01T12:51:03;0.20;;;0.20;;
27408;SDS011;20413;50.782;7.152;2023-04-01T12:55:59;0.40;;;0.20;;
27408;SDS011;20413;50.782;7.152;2023-04-01T12:58:41;0.30;;;0.30;;
27408;SDS011;20413;50.782;7.152;2023-04-01T13:15:17;0.20;;;0.20;;
27408;SDS011;20413;50.782;7.152;2023-04-01T13:23:30;0.95;;;0.22;;
27408;SDS011;20413;50.782;7.152;2023-04-01T13:26:04;0.25;;;0.25;;
27408;SDS011;20413;50.782;7.152;2023-04-01T13:31:41;0.30;;;0.25;;
27408;SDS011;20413;50.782;7.152;2023-04-01T13:37:24;0.40;;;0.40;;
27408;SDS011;20413;50.782;7.152;2023-04-01T13:50:23;1.20;;;0.30;;
27408;SDS011;20413;50.782;7.152;2023-04-01T13:53:02;0.40;;;0.30;;
27408;SDS011;20413;50.782;7.152;2023-04-01T14:06:14;0.20;;;0.20;;
27408;SDS011;20413;50.782;7.152;2023-04-01T14:08:45;0.20;;;0.20;;
27408;SDS011;20413;50.782;7.152;2023-04-01T14:14:18;1.02;;;0.60;;
27408;SDS011;20413;50.782;7.152;2023-04-01T14:22:34;1.27;;;0.50;;
27408;SDS011;20413;50.782;7.152;2023-04-01T14:25:22;0.82;;;0.50;;
27408;SDS011;20413;50.782;7.152;2023-04-01T14:34:21;0.57;;;0.57;;
27408;SDS011;20413;50.782;7.152;2023-04-01T14:42:21;0.50;;;0.50;;
27408;SDS011;20413;50.782;7.152;2023-04-01T14:52:55;0.50;;;0.50;;
27408;SDS011;20413;50.782;7.152;2023-04-01T14:58:12;1.85;;;0.47;;
27408;SDS011;20413;50.782;7.152;2023-04-01T15:03:29;0.63;;;0.50;;
27408;SDS011;20413;50.782;7.152;2023-04-01T15:06:08;1.70;;;0.50;;
27408;SDS011;20413;50.782;7.152;2023-04-01T15:14:17;0.50;;;0.40;;
27408;SDS011;20413;50.782;7.152;2023-04-01T15:30:46;1.85;;;0.52;;
27408;SDS011;20413;50.782;7.152;2023-04-01T15:33:38;0.50;;;0.40;;
27408;SDS011;20413;50.782;7.152;2023-04-01T15:38:43;0.60;;;0.60;;
27408;SDS011;20413;50.782;7.152;2023-04-01T15:41:33;1.70;;;0.77;;
27408;SDS011;20413;50.782;7.152;2023-04-01T15:44:26;1.77;;;0.80;;
27408;SDS011;20413;50.782;7.152;2023-04-01T15:52:23;1.42;;;0.80;;
27408;SDS011;20413;50.782;7.152;2023-04-01T16:03:46;1.42;;;0.98;;
27408;SDS011;20413;50.782;7.152;2023-04-01T16:06:42;1.20;;;0.80;;
27408;SDS011;20413;50.782;7.152;2023-04-01T16:18:01;1.33;;;1.23;;
27408;SDS011;20413;50.782;7.152;2023-04-01T16:20:55;1.00;;;0.90;;
27408;SDS011;20413;50.782;7.152;2023-04-01T16:23:42;1.27;;;1.17;;
27408;SDS011;20413;50.782;7.152;2023-04-01T16:26:17;2.35;;;1.52;;
27408;SDS011;20413;50.782;7.152;2023-04-01T16:34:38;1.80;;;1.50;;
27408;SDS011;20413;50.782;7.152;2023-04-01T16:37:17;2.25;;;1.13;;
27408;SDS011;20413;50.782;7.152;2023-04-01T16:39:54;2.92;;;1.50;;
27408;SDS011;20413;50.782;7.152;2023-04-01T16:47:57;1.40;;;1.30;;
27408;SDS011;20413;50.782;7.152;2023-04-01T16:50:52;2.83;;;1.40;;
27408;SDS011;20413;50.782;7.152;2023-04-01T16:53:41;3.47;;;1.50;;
27408;SDS011;20413;50.782;7.152;2023-04-01T16:59:02;1.30;;;1.10;;
27408;SDS011;20413;50.782;7.152;2023-04-01T17:01:49;2.28;;;0.50;;
27408;SDS011;20413;50.782;7.152;2023-04-01T17:10:02;0.57;;;0.50;;
27408;SDS011;20413;50.782;7.152;2023-04-01T17:13:29;1.35;;;0.88;;
27408;SDS011;20413;50.782;7.152;2023-04-01T17:15:46;1.65;;;0.57;;
27408;SDS011;20413;50.782;7.152;2023-04-01T17:21:43;1.98;;;0.70;;
27408;SDS011;20413;50.782;7.152;2023-04-01T17:27:15;2.00;;;1.02;;
27408;SDS011;20413;50.782;7.152;2023-04-01T17:38:17;2.70;;;1.25;;
27408;SDS011;20413;50.782;7.152;2023-04-01T17:41:03;1.25;;;0.93;;
27408;SDS011;20413;50.782;7.152;2023-04-01T17:52:00;6.43;;;1.10;;
27408;SDS011;20413;50.782;7.152;2023-04-01T17:57:39;1.83;;;1.13;;
27408;SDS011;20413;50.782;7.152;2023-04-01T18:05:41;1.23;;;1.08;;
27408;SDS011;20413;50.782;7.152;2023-04-01T18:17:30;1.55;;;1.25;;
27408;SDS011;20413;50.782;7.152;2023-04-01T18:30:36;2.03;;;1.33;;
27408;SDS011;20413;50.782;7.152;2023-04-01T18:33:06;1.50;;;1.40;;
27408;SDS011;20413;50.782;7.152;2023-04-01T18:40:53;7.47;;;2.80;;
27408;SDS011;20413;50.782;7.152;2023-04-01T18:43:29;1.55;;;1.45;;
27408;SDS011;20413;50.782;7.152;2023-04-01T18:49:28;2.53;;;1.92;;
27408;SDS011;20413;50.782;7.152;2023-04-01T18:52:09;4.43;;;2.30;;
27408;SDS011;20413;50.782;7.152;2023-04-01T18:54:49;1.70;;;1.60;;
27408;SDS011;20413;50.782;7.152;2023-04-01T18:57:18;2.55;;;1.40;;
27408;SDS011;20413;50.782;7.152;2023-04-01T18:59:46;1.23;;;1.13;;
27408;SDS011;20413;50.782;7.152;2023-04-01T19:02:34;1.73;;;1.60;;
27408;SDS011;20413;50.782;7.152;2023-04-01T19:05:09;2.17;;;1.70;;
27408;SDS011;20413;50.782;7.152;2023-04-01T19:08:12;2.25;;;1.80;;
27408;SDS011;20413;50.782;7.152;2023-04-01T19:25:38;2.17;;;1.98;;
27408;SDS011;20413;50.782;7.152;2023-04-01T19:31:24;2.65;;;2.45;;
27408;SDS011;20413;50.782;7.152;2023-04-01T19:37:05;3.30;;;2.70;;
27408;SDS011;20413;50.782;7.152;2023-04-01T19:39:55;3.45;;;3.05;;
27408;SDS011;20413;50.782;7.152;2023-04-01T19:42:50;3.63;;;3.05;;
27408;SDS011;20413;50.782;7.152;2023-04-01T19:51:48;3.97;;;3.42;;
27408;SDS011;20413;50.782;7.152;2023-04-01T20:02:55;5.68;;;4.05;;
27408;SDS011;20413;50.782;7.152;2023-04-01T20:05:45;3.58;;;3.28;;
27408;SDS011;20413;50.782;7.152;2023-04-01T20:11:37;5.82;;;3.95;;
27408;SDS011;20413;50.782;7.152;2023-04-01T20:14:40;3.40;;;3.10;;
27408;SDS011;20413;50.782;7.152;2023-04-01T20:17:21;4.13;;;3.50;;
27408;SDS011;20413;50.782;7.152;2023-04-01T20:25:23;3.53;;;3.22;;
27408;SDS011;20413;50.782;7.152;2023-04-01T20:34:17;4.50;;;2.65;;
27408;SDS011;20413;50.782;7.152;2023-04-01T20:37:02;3.80;;;2.78;;
27408;SDS011;20413;50.782;7.152;2023-04-01T20:40:01;3.58;;;2.60;;
27408;SDS011;20413;50.782;7.152;2023-04-01T21:07:41;1.92;;;1.70;;
27408;SDS011;20413;50.782;7.152;2023-04-01T21:10:39;2.42;;;1.70;;
27408;SDS011;20413;50.782;7.152;2023-04-01T21:13:29;2.78;;;1.45;;
27408;SDS011;20413;50.782;7.152;2023-04-01T21:30:00;2.90;;;1.92;;
27408;SDS011;20413;50.782;7.152;2023-04-01T21:32:53;3.25;;;1.90;;
27408;SDS011;20413;50.782;7.152;2023-04-01T21:35:26;5.15;;;2.17;;
27408;SDS011;20413;50.782;7.152;2023-04-01T21:38:11;4.35;;;2.40;;
27408;SDS011;20413;50.782;7.152;2023-04-01T21:47:26;2.90;;;2.08;;
27408;SDS011;20413;50.782;7.152;2023-04-01T22:06:43;2.88;;;1.63;;
27408;SDS011;20413;50.782;7.152;2023-04-01T22:09:18;2.65;;;1.67;;
27408;SDS011;20413;50.782;7.152;2023-04-01T22:25:17;1.77;;;1.27;;
27408;SDS011;20413;50.782;7.152;2023-04-01T22:27:55;1.90;;;1.00;;
27408;SDS011;20413;50.782;7.152;2023-04-01T22:30:29;3.70;;;1.40;;
27408;SDS011;20413;50.782;7.152;2023-04-01T22:33:07;2.20;;;1.30;;
27408;SDS011;20413;50.782;7.152;2023-04-01T22:35:49;2.33;;;1.27;;
27408;SDS011;20413;50.782;7.152;2023-04-01T22:44:07;2.08;;;1.80;;
27408;SDS011;20413;50.782;7.152;2023-04-01T22:49:41;1.48;;;1.38;;
27408;SDS011;20413;50.782;7.152;2023-04-01T22:54:56;0.90;;;0.85;;
27408;SDS011;20413;50.782;7.152;2023-04-01T23:00:14;1.13;;;1.13;;
27408;SDS011;20413;50.782;7.152;2023-04-01T23:05:28;1.08;;;0.85;;
27408;SDS011;20413;50.782;7.152;2023-04-01T23:13:39;1.35;;;0.80;;
27408;SDS011;20413;50.782;7.152;2023-04-01T23:16:10;0.90;;;0.68;;
27408;SDS011;20413;50.782;7.152;2023-04-01T23:18:44;1.38;;;0.80;;
27408;SDS011;20413;50.782;7.152;2023-04-01T23:21:22;1.50;;;0.90;;
27408;SDS011;20413;50.782;7.152;2023-04-01T23:26:59;1.00;;;1.00;;
27408;SDS011;20413;50.782;7.152;2023-04-01T23:29:37;1.23;;;1.13;;
27408;SDS011;20413;50.782;7.152;2023-04-01T23:32:17;1.75;;;1.05;;
27408;SDS011;20413;50.782;7.152;2023-04-01T23:34:47;2.42;;;1.10;;
27408;SDS011;20413;50.782;7.152;2023-04-01T23:37:14;0.90;;;0.90;;
27408;SDS011;20413;50.782;7.152;2023-04-01T23:42:27;0.83;;;0.83;;
27408;SDS011;20413;50.782;7.152;2023-04-01T23:44:56;1.27;;;0.80;;
27408;SDS011;20413;50.782;7.152;2023-04-01T23:47:24;0.68;;;0.68;;
27408;SDS011;20413;50.782;7.152;2023-04-01T23:49:55;0.90;;;0.60;;
27408;SDS011;20413;50.782;7.152;2023-04-01T23:52:22;0.60;;;0.60;;
27408;SDS011;20413;50.782;7.152;2023-04-01T23:58:38;1.17;;;1.08;;
